Time;durP1;ratioP1;P1;durP2;ratioP2;P2;SDS_P1;SDS_P2;PMS_P1;PMS_P2;Temp;Humidity;BMP_temperature;BMP_pressure;BME280_temperature;BME280_humidity;BME280_pressure;Samples;Min_cycle;Max_cycle;Signal;HPM_P1;HPM_P2
2022/10/11 00:01:46;;;;;;;13.27;7.03;;;19.30;63.90;;;;;;5116854;27;21122;-84
2022/10/11 00:04:13;;;;;;;10.37;6.87;;;19.30;64.20;;;;;;5095678;28;20443;-88
2022/10/11 00:06:42;;;;;;;10.73;7.50;;;19.30;63.80;;;;;;5115305;27;20552;-84
2022/10/11 00:09:10;;;;;;;13.60;7.50;;;19.40;63.90;;;;;;5111172;27;20461;-85
2022/10/11 00:11:38;;;;;;;12.23;8.33;;;19.40;64.90;;;;;;5101193;27;20438;-85
2022/10/11 00:14:06;;;;;;;14.83;8.30;;;19.20;65.60;;;;;;5112160;27;20447;-86
2022/10/11 00:16:34;;;;;;;11.97;7.60;;;19.20;65.60;;;;;;5097366;27;20462;-84
2022/10/11 00:19:02;;;;;;;12.10;7.57;;;19.30;65.00;;;;;;5113491;27;20702;-85
2022/10/11 00:21:30;;;;;;;14.47;8.70;;;19.30;65.00;;;;;;5111480;27;20534;-86
2022/10/11 00:23:57;;;;;;;14.10;8.87;;;19.40;64.70;;;;;;5117348;27;21018;-88
2022/10/11 00:26:25;;;;;;;13.73;9.47;;;19.50;64.40;;;;;;5114411;27;20443;-85
2022/10/11 00:28:52;;;;;;;11.10;8.00;;;19.40;64.90;;;;;;5110183;27;20482;-85
2022/10/11 00:31:20;;;;;;;20.83;8.77;;;19.40;65.00;;;;;;5112554;27;20466;-88
2022/10/11 00:33:47;;;;;;;15.77;9.13;;;19.40;65.00;;;;;;5116036;27;20454;-85
2022/10/11 00:36:17;;;;;;;11.23;8.40;;;19.50;64.60;;;;;;5101717;27;20447;-87
2022/10/11 00:38:45;;;;;;;13.40;8.60;;;19.50;64.20;;;;;;5113699;27;20465;-87
2022/10/11 00:41:14;;;;;;;11.37;8.57;;;19.60;63.90;;;;;;5111642;27;20786;-88
2022/10/11 00:43:42;;;;;;;16.70;10.40;;;19.50;64.40;;;;;;5111450;27;22075;-86
2022/10/11 00:46:31;;;;;;;14.00;8.27;;;19.50;64.00;;;;;;5111941;27;20511;-85
2022/10/11 00:49:07;;;;;;;17.63;8.67;;;19.50;65.00;;;;;;5107384;27;20471;-85
2022/10/11 00:51:47;;;;;;;14.57;8.43;;;19.50;64.00;;;;;;5120975;27;20462;-85
2022/10/11 00:54:18;;;;;;;10.87;7.70;;;19.60;63.80;;;;;;5123030;27;20567;-85
2022/10/11 00:56:50;;;;;;;15.53;9.40;;;19.50;64.70;;;;;;5116652;27;20445;-86
2022/10/11 00:59:21;;;;;;;15.67;9.40;;;19.50;64.30;;;;;;5112345;27;20535;-87
2022/10/11 01:01:49;;;;;;;18.50;8.73;;;19.30;65.80;;;;;;5131586;27;20439;-88
2022/10/11 01:04:16;;;;;;;15.63;8.50;;;19.30;65.20;;;;;;5111921;27;20789;-85
2022/10/11 01:06:47;;;;;;;14.50;7.83;;;19.30;63.80;;;;;;5101606;28;20458;-85
2022/10/11 01:09:15;;;;;;;11.83;8.30;;;19.40;63.90;;;;;;5111465;27;20558;-87
2022/10/11 01:11:43;;;;;;;15.93;8.87;;;19.40;63.60;;;;;;5114705;27;21887;-85
2022/10/11 01:14:32;;;;;;;12.93;8.00;;;19.40;64.00;;;;;;5099985;28;20818;-86
2022/10/11 01:17:08;;;;;;;10.37;7.17;;;19.50;63.90;;;;;;5111182;28;21014;-85
2022/10/11 01:19:54;;;;;;;9.77;7.60;;;19.40;63.30;;;;;;5094328;28;20442;-86
2022/10/11 01:22:48;;;;;;;10.13;7.20;;;19.40;62.80;;;;;;5113869;28;20447;-86
2022/10/11 01:25:27;;;;;;;12.47;9.60;;;19.40;62.40;;;;;;5114494;28;20450;-85
2022/10/11 01:28:11;;;;;;;12.43;7.53;;;19.30;61.90;;;;;;5117101;27;20469;-83
2022/10/11 01:30:42;;;;;;;12.73;7.97;;;19.30;62.00;;;;;;5114975;28;20458;-85
2022/10/11 01:33:18;;;;;;;10.40;6.93;;;19.30;61.80;;;;;;5114748;28;20455;-88
2022/10/11 01:35:53;;;;;;;12.93;8.50;;;19.20;61.90;;;;;;5105139;28;20486;-86
2022/10/11 01:38:26;;;;;;;12.83;8.50;;;19.20;62.40;;;;;;5123557;28;20474;-86
2022/10/11 01:40:57;;;;;;;15.10;9.80;;;19.20;63.70;;;;;;5116399;28;20492;-86
2022/10/11 01:43:26;;;;;;;15.10;7.93;;;19.20;63.40;;;;;;5110613;28;21229;-87
2022/10/11 01:45:57;;;;;;;16.03;8.60;;;19.20;63.20;;;;;;5107786;28;20463;-86
2022/10/11 01:48:25;;;;;;;9.63;7.60;;;19.20;62.70;;;;;;5109778;28;21014;-84
2022/10/11 01:50:55;;;;;;;13.70;8.90;;;19.20;62.50;;;;;;5099910;28;20497;-86
2022/10/11 01:53:45;;;;;;;11.27;7.50;;;19.20;62.30;;;;;;5111433;27;20473;-85
2022/10/11 01:56:24;;;;;;;10.50;7.07;;;19.20;63.00;;;;;;5119903;27;20599;-85
2022/10/11 01:59:06;;;;;;;13.60;8.20;;;19.20;62.80;;;;;;5125663;27;20463;-87
2022/10/11 02:01:42;;;;;;;13.00;7.63;;;19.20;62.50;;;;;;5125528;27;20441;-87
2022/10/11 02:04:17;;;;;;;17.60;8.13;;;19.20;61.80;;;;;;5117780;27;20442;-85
2022/10/11 02:06:51;;;;;;;35.17;10.13;;;19.20;62.00;;;;;;5115222;27;20460;-85
2022/10/11 02:09:24;;;;;;;16.67;9.00;;;19.00;63.50;;;;;;5115572;27;20467;-84
2022/10/11 02:11:57;;;;;;;18.37;8.97;;;19.00;63.70;;;;;;5098454;27;20462;-86
2022/10/11 02:14:27;;;;;;;15.63;8.17;;;19.00;63.20;;;;;;5104066;27;20442;-84
2022/10/11 02:17:02;;;;;;;19.90;9.33;;;19.00;63.30;;;;;;5104334;27;20478;-86
2022/10/11 02:19:35;;;;;;;17.50;8.63;;;19.10;63.30;;;;;;5116432;27;20463;-85
2022/10/11 02:22:08;;;;;;;10.97;8.57;;;19.10;63.40;;;;;;5116291;27;20429;-85
2022/10/11 02:24:39;;;;;;;19.70;9.70;;;19.10;63.20;;;;;;5116801;27;20442;-85
2022/10/11 02:27:09;;;;;;;15.53;8.07;;;19.00;63.70;;;;;;5111178;27;21116;-86
2022/10/11 02:29:41;;;;;;;15.50;9.37;;;19.10;63.60;;;;;;5102456;27;20504;-85
2022/10/11 02:32:11;;;;;;;14.30;7.80;;;19.10;63.40;;;;;;5100962;27;20466;-88
2022/10/11 02:34:44;;;;;;;11.23;7.93;;;19.10;63.00;;;;;;5096936;27;20474;-88
2022/10/11 02:37:19;;;;;;;9.77;7.00;;;19.10;62.60;;;;;;5124314;27;20805;-88
2022/10/11 02:39:54;;;;;;;12.60;7.77;;;19.10;62.30;;;;;;5098868;27;20433;-86
2022/10/11 02:42:25;;;;;;;15.30;7.87;;;19.00;62.00;;;;;;5108955;27;20454;-86
2022/10/11 02:45:00;;;;;;;12.47;8.07;;;18.80;62.80;;;;;;5117638;27;20451;-86
2022/10/11 02:47:31;;;;;;;13.10;7.90;;;18.70;63.10;;;;;;5115252;27;20447;-85
2022/10/11 02:49:59;;;;;;;14.47;8.67;;;18.70;63.00;;;;;;5117241;27;20869;-86
2022/10/11 02:52:27;;;;;;;16.13;8.00;;;18.30;62.30;;;;;;5106171;27;20474;-87
2022/10/11 02:54:55;;;;;;;11.70;7.70;;;18.30;63.40;;;;;;5105010;27;21183;-85
2022/10/11 02:57:22;;;;;;;16.33;7.17;;;18.40;63.30;;;;;;5109199;27;20504;-86
2022/10/11 02:59:49;;;;;;;12.03;8.63;;;18.50;63.90;;;;;;5118586;27;20431;-89
2022/10/11 03:02:17;;;;;;;12.30;7.80;;;18.60;62.40;;;;;;5125175;27;20440;-86
2022/10/11 03:04:46;;;;;;;14.90;7.73;;;18.60;62.30;;;;;;5102940;28;20438;-85
2022/10/11 03:07:14;;;;;;;12.03;7.60;;;18.60;62.00;;;;;;5112796;27;20449;-85
2022/10/11 03:09:42;;;;;;;13.60;7.20;;;18.60;62.00;;;;;;5115233;27;20457;-84
2022/10/11 03:12:09;;;;;;;11.27;8.40;;;18.50;62.20;;;;;;5119599;27;20467;-85
2022/10/11 03:14:36;;;;;;;11.77;8.10;;;18.20;62.90;;;;;;5115886;27;20451;-86
2022/10/11 03:17:04;;;;;;;13.03;7.93;;;18.20;62.80;;;;;;5109795;27;20446;-84
2022/10/11 03:19:32;;;;;;;17.00;8.67;;;18.30;62.70;;;;;;5121811;27;20992;-84
2022/10/11 03:22:01;;;;;;;9.80;8.00;;;18.30;62.40;;;;;;5099373;28;20541;-85
2022/10/11 03:24:28;;;;;;;15.77;8.40;;;18.40;62.30;;;;;;5112730;27;20525;-83
2022/10/11 03:26:55;;;;;;;16.13;7.07;;;18.40;62.10;;;;;;5117309;27;20815;-85
2022/10/11 03:29:23;;;;;;;13.60;8.50;;;18.40;61.80;;;;;;5116168;27;20569;-85
2022/10/11 03:31:50;;;;;;;13.93;9.57;;;18.40;62.10;;;;;;5115300;27;20461;-84
2022/10/11 03:34:18;;;;;;;10.10;8.60;;;18.30;62.00;;;;;;5114252;27;20465;-84
2022/10/11 03:36:45;;;;;;;10.90;8.67;;;18.30;61.90;;;;;;5124774;27;20458;-86
2022/10/11 03:39:14;;;;;;;12.83;7.70;;;18.40;61.70;;;;;;5101037;27;20450;-85
2022/10/11 03:41:41;;;;;;;13.13;8.50;;;18.40;61.60;;;;;;5120064;27;20449;-88
2022/10/11 03:44:09;;;;;;;13.20;8.43;;;18.40;61.30;;;;;;5102215;27;20450;-87
2022/10/11 03:46:36;;;;;;;14.90;9.17;;;18.30;60.90;;;;;;5103799;27;20466;-88
2022/10/11 03:49:03;;;;;;;10.43;7.60;;;18.30;61.20;;;;;;5115641;27;20470;-87
2022/10/11 03:51:31;;;;;;;19.77;8.17;;;18.30;61.10;;;;;;5108336;27;20519;-85
2022/10/11 03:53:59;;;;;;;14.50;9.03;;;18.30;61.10;;;;;;5105458;27;20442;-86
2022/10/11 03:56:27;;;;;;;15.80;8.73;;;18.30;61.00;;;;;;5114101;27;20442;-86
2022/10/11 03:58:55;;;;;;;16.97;7.90;;;18.30;60.70;;;;;;5091904;28;20462;-89
2022/10/11 04:01:22;;;;;;;13.33;8.73;;;18.20;60.30;;;;;;5111917;27;20427;-86
2022/10/11 04:03:50;;;;;;;17.50;11.90;;;18.20;60.60;;;;;;5114664;27;20559;-87
2022/10/11 04:06:17;;;;;;;15.80;10.90;;;18.10;60.40;;;;;;5111281;27;20454;-86
2022/10/11 04:08:45;;;;;;;10.07;7.93;;;18.10;59.90;;;;;;5113974;27;20480;-87
2022/10/11 04:11:12;;;;;;;15.10;9.90;;;17.90;60.80;;;;;;5123755;27;20470;-85
2022/10/11 04:13:41;;;;;;;17.47;10.20;;;17.90;61.20;;;;;;5114141;27;20455;-87
2022/10/11 04:16:08;;;;;;;19.30;11.20;;;17.80;61.10;;;;;;5111339;27;20443;-85
2022/10/11 04:18:35;;;;;;;12.83;10.47;;;17.90;61.00;;;;;;5095308;27;20470;-86
2022/10/11 04:21:03;;;;;;;18.03;10.53;;;18.00;60.70;;;;;;5113126;27;20451;-87
2022/10/11 04:23:31;;;;;;;11.83;9.07;;;18.00;60.10;;;;;;5114108;27;20507;-85
2022/10/11 04:25:58;;;;;;;12.43;9.00;;;18.00;59.80;;;;;;5106219;27;20451;-86
2022/10/11 04:28:25;;;;;;;14.43;9.97;;;17.90;59.30;;;;;;5109993;27;20474;-85
2022/10/11 04:30:54;;;;;;;11.13;9.00;;;17.90;59.50;;;;;;5101757;27;20938;-87
2022/10/11 04:33:21;;;;;;;11.70;9.33;;;17.90;59.70;;;;;;5108724;27;20455;-85
2022/10/11 04:35:49;;;;;;;11.90;8.93;;;17.90;59.70;;;;;;5108047;27;20837;-86
2022/10/11 04:38:16;;;;;;;13.53;8.97;;;17.80;59.40;;;;;;5121030;27;20501;-85
2022/10/11 04:40:43;;;;;;;21.33;11.93;;;17.80;59.00;;;;;;5097736;27;22105;-86
2022/10/11 04:43:11;;;;;;;17.07;10.70;;;17.70;58.50;;;;;;5112857;27;20887;-86
2022/10/11 04:45:38;;;;;;;19.80;11.90;;;17.60;58.70;;;;;;5110396;27;20457;-87
2022/10/11 04:48:07;;;;;;;14.67;9.83;;;17.50;59.30;;;;;;5113956;27;20470;-87
2022/10/11 04:50:34;;;;;;;12.70;9.47;;;17.30;58.90;;;;;;5111075;27;20541;-85
2022/10/11 04:53:02;;;;;;;15.07;9.63;;;17.20;59.00;;;;;;5113341;27;20715;-86
2022/10/11 04:55:29;;;;;;;19.17;10.53;;;16.90;60.20;;;;;;5107851;27;20446;-85
2022/10/11 04:57:56;;;;;;;12.57;9.20;;;16.90;61.40;;;;;;5093020;28;20469;-87
2022/10/11 05:00:24;;;;;;;15.63;10.43;;;16.90;60.70;;;;;;5111452;27;20446;-86
2022/10/11 05:02:52;;;;;;;18.53;10.93;;;17.00;60.70;;;;;;5113149;27;20458;-86
2022/10/11 05:05:21;;;;;;;15.63;9.60;;;17.00;60.80;;;;;;5116216;27;20783;-85
2022/10/11 05:07:48;;;;;;;15.23;9.07;;;17.00;59.90;;;;;;5112045;27;20554;-86
2022/10/11 05:10:16;;;;;;;20.60;9.87;;;17.00;59.40;;;;;;5094574;27;20449;-83
2022/10/11 05:12:43;;;;;;;17.30;9.27;;;17.00;60.20;;;;;;5110048;28;20847;-85
2022/10/11 05:15:11;;;;;;;20.83;9.80;;;16.70;61.70;;;;;;5109379;27;20469;-87
2022/10/11 05:17:38;;;;;;;16.30;8.53;;;16.70;61.30;;;;;;5113130;28;20470;-86
2022/10/11 05:20:06;;;;;;;12.90;8.80;;;16.80;60.70;;;;;;5108177;28;20446;-86
2022/10/11 05:22:35;;;;;;;13.73;8.90;;;16.90;60.80;;;;;;5107652;28;20526;-85
2022/10/11 05:25:03;;;;;;;24.00;10.77;;;17.00;60.00;;;;;;5096776;28;20451;-85
2022/10/11 05:27:30;;;;;;;20.50;12.30;;;17.00;59.70;;;;;;5111349;28;20431;-86
2022/10/11 05:29:57;;;;;;;18.97;12.60;;;17.00;59.90;;;;;;5119543;27;20502;-88
2022/10/11 05:32:25;;;;;;;22.17;13.03;;;17.10;60.10;;;;;;5117613;27;20481;-85
2022/10/11 05:34:52;;;;;;;12.80;10.27;;;17.10;59.80;;;;;;5107675;27;20980;-85
2022/10/11 05:37:20;;;;;;;14.27;9.80;;;17.00;60.00;;;;;;5116120;27;21227;-88
2022/10/11 05:39:49;;;;;;;21.83;10.90;;;17.00;60.10;;;;;;5114754;27;20442;-85
2022/10/11 05:42:16;;;;;;;18.93;10.23;;;16.90;60.50;;;;;;5115965;27;20466;-85
2022/10/11 05:44:43;;;;;;;16.97;9.20;;;16.80;59.90;;;;;;5113217;27;20485;-85
2022/10/11 05:47:11;;;;;;;19.90;12.20;;;16.70;60.50;;;;;;5103076;27;20780;-86
2022/10/11 05:49:41;;;;;;;14.93;10.30;;;16.80;60.30;;;;;;5114524;27;20445;-84
2022/10/11 05:52:09;;;;;;;15.70;11.70;;;16.80;60.90;;;;;;5116248;27;20493;-88
2022/10/11 05:54:37;;;;;;;18.67;11.70;;;16.90;60.50;;;;;;5104458;27;21219;-90
2022/10/11 05:57:06;;;;;;;23.73;12.93;;;17.00;60.30;;;;;;5096496;27;20832;-88
2022/10/11 05:59:35;;;;;;;24.27;18.53;;;17.00;60.40;;;;;;5111708;27;20754;-86
2022/10/11 06:02:02;;;;;;;26.20;17.60;;;17.10;60.20;;;;;;5112417;27;20461;-85
2022/10/11 06:04:30;;;;;;;27.80;21.73;;;17.10;60.00;;;;;;5112007;27;20449;-86
2022/10/11 06:06:57;;;;;;;29.13;21.50;;;17.20;60.10;;;;;;5110738;27;20883;-87
2022/10/11 06:09:24;;;;;;;29.97;22.57;;;17.20;60.10;;;;;;5112415;27;20475;-86
2022/10/11 06:11:52;;;;;;;24.50;17.43;;;17.20;60.10;;;;;;5113465;27;20493;-86
2022/10/11 06:14:20;;;;;;;21.17;16.50;;;17.20;59.80;;;;;;5119213;27;20449;-87
2022/10/11 06:16:48;;;;;;;19.17;13.77;;;17.10;60.70;;;;;;5115291;27;20477;-87
2022/10/11 06:19:16;;;;;;;20.80;13.43;;;16.90;61.00;;;;;;5116675;27;21104;-88
2022/10/11 06:21:44;;;;;;;21.10;14.37;;;16.90;60.60;;;;;;5113771;27;20442;-87
2022/10/11 06:24:12;;;;;;;25.07;11.40;;;16.80;61.60;;;;;;5097776;27;20491;-86
2022/10/11 06:26:39;;;;;;;12.43;8.77;;;16.90;61.60;;;;;;5094644;27;20453;-86
2022/10/11 06:29:07;;;;;;;14.97;8.03;;;17.00;61.50;;;;;;5111850;27;20474;-87
2022/10/11 06:31:35;;;;;;;8.73;6.33;;;17.00;60.60;;;;;;5113485;27;20501;-86
2022/10/11 06:34:03;;;;;;;10.57;7.07;;;17.10;60.10;;;;;;5096805;28;20553;-86
2022/10/11 06:36:30;;;;;;;11.97;7.53;;;17.10;59.70;;;;;;5087772;27;20468;-88
2022/10/11 06:38:59;;;;;;;9.53;7.10;;;17.00;60.10;;;;;;5096408;27;20700;-86
2022/10/11 06:41:29;;;;;;;14.03;8.40;;;17.10;60.60;;;;;;5097608;27;20457;-86
2022/10/11 06:43:57;;;;;;;13.23;8.00;;;17.20;60.80;;;;;;5085904;27;20454;-86
2022/10/11 06:46:26;;;;;;;10.33;6.97;;;17.30;60.80;;;;;;5115192;27;20442;-86
2022/10/11 06:49:10;;;;;;;11.27;6.73;;;17.30;59.90;;;;;;5111417;27;20474;-87
2022/10/11 06:51:38;;;;;;;10.70;7.70;;;17.40;60.30;;;;;;5082436;27;20474;-87
2022/10/11 06:54:05;;;;;;;11.50;7.17;;;17.30;60.20;;;;;;5095930;27;21102;-87
2022/10/11 06:56:32;;;;;;;10.53;7.77;;;17.30;60.60;;;;;;5088240;27;20833;-88
2022/10/11 06:59:00;;;;;;;9.00;6.53;;;17.20;60.50;;;;;;5100794;27;20481;-87
2022/10/11 07:01:27;;;;;;;12.00;9.13;;;17.30;60.30;;;;;;5117427;27;20446;-88
2022/10/11 07:03:57;;;;;;;8.63;7.10;;;17.30;60.30;;;;;;5106431;27;20461;-87
2022/10/11 07:06:28;;;;;;;9.47;6.20;;;17.50;60.40;;;;;;5085504;27;20459;-90
2022/10/11 07:08:56;;;;;;;7.63;5.13;;;17.40;59.90;;;;;;5096633;27;20507;-86
2022/10/11 07:11:25;;;;;;;8.47;4.77;;;17.40;59.70;;;;;;5098702;27;20457;-86
2022/10/11 07:13:56;;;;;;;5.70;3.83;;;17.30;59.30;;;;;;5099639;27;20965;-88
2022/10/11 07:16:24;;;;;;;6.70;3.67;;;17.30;58.50;;;;;;5098066;27;20443;-85
2022/10/11 07:18:53;;;;;;;8.40;3.50;;;17.10;58.20;;;;;;5105356;27;20986;-87
2022/10/11 07:21:21;;;;;;;8.70;3.30;;;17.10;58.60;;;;;;5117499;27;20454;-89
2022/10/11 07:23:49;;;;;;;8.40;3.83;;;16.90;58.60;;;;;;5091386;27;20441;-87
2022/10/11 07:26:18;;;;;;;6.60;3.30;;;17.10;59.40;;;;;;5103733;27;20533;-84
2022/10/11 07:28:45;;;;;;;5.97;2.83;;;17.30;59.60;;;;;;5116637;27;20469;-86
2022/10/11 07:31:15;;;;;;;5.83;3.83;;;17.30;59.20;;;;;;5082693;27;20473;-86
2022/10/11 07:33:42;;;;;;;7.10;3.80;;;17.40;58.90;;;;;;5078870;27;20466;-84
2022/10/11 07:36:10;;;;;;;3.93;2.63;;;17.50;58.70;;;;;;5077944;27;21011;-89
2022/10/11 07:38:39;;;;;;;16.33;8.33;;;17.30;57.60;;;;;;5099927;27;20481;-88
2022/10/11 07:41:09;;;;;;;4.90;2.80;;;17.20;59.30;;;;;;5114486;27;20440;-86
2022/10/11 07:43:36;;;;;;;4.40;2.97;;;16.90;58.50;;;;;;5094644;27;20483;-87
2022/10/11 07:46:04;;;;;;;9.40;2.30;;;17.00;58.80;;;;;;5116509;27;20498;-87
2022/10/11 07:48:33;;;;;;;6.40;2.97;;;17.00;58.50;;;;;;5099638;27;20474;-86
2022/10/11 07:51:05;;;;;;;3.43;2.10;;;17.10;58.30;;;;;;5112611;27;20787;-85
2022/10/11 07:53:37;;;;;;;10.27;3.10;;;17.10;58.10;;;;;;5106104;27;20470;-89
2022/10/11 07:56:05;;;;;;;8.00;2.87;;;17.20;58.40;;;;;;5114817;27;20484;-86
2022/10/11 07:58:34;;;;;;;13.13;5.77;;;17.20;58.70;;;;;;5108658;27;20469;-88
2022/10/11 08:01:01;;;;;;;31.27;17.77;;;17.30;58.40;;;;;;5111025;27;20520;-87
2022/10/11 08:03:29;;;;;;;12.17;4.97;;;17.30;58.20;;;;;;5095501;27;20496;-88
2022/10/11 08:06:00;;;;;;;7.53;4.03;;;17.20;58.30;;;;;;5112663;27;20454;-86
2022/10/11 08:08:27;;;;;;;6.97;6.13;;;17.30;58.10;;;;;;5114248;27;20954;-86
2022/10/11 08:10:55;;;;;;;8.90;2.63;;;17.40;58.30;;;;;;5111350;27;20439;-86
2022/10/11 08:13:22;;;;;;;12.93;5.10;;;17.40;56.90;;;;;;5110622;27;20469;-85
2022/10/11 08:15:51;;;;;;;10.47;6.63;;;17.40;57.20;;;;;;5113685;27;20951;-87
2022/10/11 08:18:19;;;;;;;9.23;2.97;;;17.50;57.50;;;;;;5121908;27;20770;-88
2022/10/11 08:20:46;;;;;;;16.10;3.37;;;17.40;56.40;;;;;;5103118;27;20581;-86
2022/10/11 08:23:14;;;;;;;13.60;6.30;;;17.30;56.70;;;;;;5093249;27;20435;-86
2022/10/11 08:25:42;;;;;;;10.03;4.87;;;17.30;57.70;;;;;;5112407;27;20510;-86
2022/10/11 08:28:14;;;;;;;10.47;4.77;;;17.50;57.20;;;;;;5090113;27;20484;-88
2022/10/11 08:30:47;;;;;;;6.00;2.80;;;17.60;57.80;;;;;;5078619;27;21921;-85
2022/10/11 08:33:16;;;;;;;17.47;5.77;;;17.70;56.70;;;;;;5094191;27;21324;-86
2022/10/11 08:35:43;;;;;;;6.93;5.40;;;17.60;56.90;;;;;;5110514;27;20530;-85
2022/10/11 08:38:11;;;;;;;9.73;4.30;;;17.80;56.90;;;;;;5095304;27;20473;-86
2022/10/11 08:40:38;;;;;;;7.00;5.03;;;17.90;56.20;;;;;;5097007;27;21184;-86
2022/10/11 08:43:12;;;;;;;11.30;3.60;;;17.80;56.70;;;;;;5111387;27;20560;-86
2022/10/11 08:45:45;;;;;;;10.70;4.10;;;17.70;56.10;;;;;;5075350;28;20479;-87
2022/10/11 08:48:17;;;;;;;8.70;3.17;;;17.70;55.60;;;;;;5099383;27;20498;-86
2022/10/11 08:50:49;;;;;;;6.27;2.50;;;17.70;55.30;;;;;;5086804;28;20434;-86
2022/10/11 08:53:23;;;;;;;5.40;2.53;;;17.50;55.70;;;;;;5091118;28;20466;-84
2022/10/11 08:55:53;;;;;;;4.60;2.53;;;17.60;55.70;;;;;;5106954;27;20442;-87
2022/10/11 08:58:24;;;;;;;3.83;1.93;;;17.60;55.30;;;;;;5092724;27;20470;-86
2022/10/11 09:00:54;;;;;;;4.60;2.07;;;17.60;55.10;;;;;;5073258;27;20434;-88
2022/10/11 09:03:36;;;;;;;4.73;2.17;;;17.50;55.30;;;;;;5111996;27;20590;-88
2022/10/11 09:06:16;;;;;;;9.77;3.40;;;17.60;55.60;;;;;;5087211;27;20565;-88
2022/10/11 09:09:09;;;;;;;6.37;2.10;;;17.70;55.30;;;;;;5077305;28;20462;-88
2022/10/11 09:11:48;;;;;;;6.70;2.37;;;17.70;55.30;;;;;;5106514;27;20480;-89
2022/10/11 09:14:37;;;;;;;5.27;2.80;;;17.70;54.40;;;;;;5088764;28;20566;-84
2022/10/11 09:17:14;;;;;;;15.10;3.00;;;17.40;55.10;;;;;;5106957;28;21165;-86
2022/10/11 09:20:18;;;;;;;10.00;2.57;;;17.50;54.60;;;;;;5110244;28;21902;-87
2022/10/11 09:22:55;;;;;;;6.77;2.40;;;17.50;54.90;;;;;;5107970;28;20480;-86
2022/10/11 09:25:26;;;;;;;7.37;2.97;;;17.40;54.80;;;;;;5103844;28;20548;-85
2022/10/11 09:28:05;;;;;;;4.23;1.83;;;17.50;56.00;;;;;;5080429;28;20552;-85
2022/10/11 09:30:33;;;;;;;7.77;4.50;;;17.40;54.60;;;;;;5086861;28;20957;-86
2022/10/11 09:33:10;;;;;;;4.10;1.77;;;17.30;54.00;;;;;;5111199;28;20463;-88
2022/10/11 09:35:42;;;;;;;5.00;1.90;;;17.50;55.60;;;;;;5112682;28;20438;-85
2022/10/11 09:38:18;;;;;;;7.13;2.23;;;17.40;54.20;;;;;;5092732;28;20450;-86
2022/10/11 09:40:58;;;;;;;17.53;2.90;;;17.40;55.50;;;;;;5076702;28;20552;-86
2022/10/11 09:43:26;;;;;;;9.60;1.60;;;17.60;54.80;;;;;;5110186;28;20536;-86
2022/10/11 09:45:53;;;;;;;6.83;2.83;;;17.70;54.70;;;;;;5075160;28;20493;-85
2022/10/11 09:48:24;;;;;;;5.50;3.40;;;17.80;54.80;;;;;;5110901;28;20929;-85
2022/10/11 09:50:58;;;;;;;9.47;4.00;;;18.00;55.30;;;;;;5086394;28;20451;-89
2022/10/11 09:53:49;;;;;;;10.37;5.27;;;18.00;54.00;;;;;;5086916;28;20470;-86
2022/10/11 09:56:17;;;;;;;7.13;3.70;;;18.10;54.00;;;;;;5111651;28;20499;-84
2022/10/11 09:58:44;;;;;;;10.17;6.40;;;18.10;53.50;;;;;;5109814;28;20777;-84
2022/10/11 10:01:13;;;;;;;9.90;3.90;;;18.10;53.40;;;;;;5113044;28;20441;-87
2022/10/11 10:03:42;;;;;;;11.70;4.90;;;18.10;53.60;;;;;;5111785;28;20442;-83
2022/10/11 10:06:16;;;;;;;7.63;3.97;;;18.10;53.70;;;;;;5108444;28;20450;-87
2022/10/11 10:08:46;;;;;;;8.20;2.30;;;18.10;53.50;;;;;;5107875;28;20557;-86
2022/10/11 10:11:14;;;;;;;7.60;2.50;;;18.20;52.90;;;;;;5094748;28;20550;-85
2022/10/11 10:13:44;;;;;;;8.77;2.27;;;17.90;53.40;;;;;;5074778;28;21047;-87
2022/10/11 10:16:24;;;;;;;7.20;2.30;;;18.10;53.30;;;;;;5086544;27;20850;-87
2022/10/11 10:18:54;;;;;;;13.83;2.87;;;18.10;53.00;;;;;;5099094;27;20457;-88
2022/10/11 10:21:28;;;;;;;5.83;1.93;;;18.00;53.50;;;;;;5095019;27;20459;-85
2022/10/11 10:23:56;;;;;;;20.43;5.90;;;17.70;53.80;;;;;;5104949;27;20437;-85
2022/10/11 10:26:25;;;;;;;9.93;4.93;;;17.80;54.70;;;;;;5096157;27;20458;-83
2022/10/11 10:28:58;;;;;;;14.07;4.50;;;18.10;54.70;;;;;;5116060;27;20485;-85
2022/10/11 10:31:35;;;;;;;8.07;4.43;;;18.40;53.50;;;;;;5118402;27;20432;-86
2022/10/11 10:34:07;;;;;;;8.37;3.60;;;18.30;53.70;;;;;;5101021;27;20949;-89
2022/10/11 10:36:39;;;;;;;7.20;3.23;;;18.50;53.80;;;;;;5114919;27;20466;-85
2022/10/11 10:39:13;;;;;;;7.80;3.13;;;18.50;52.80;;;;;;5117174;27;20457;-86
2022/10/11 10:41:40;;;;;;;7.57;1.70;;;18.60;53.10;;;;;;5065323;27;20438;-87
2022/10/11 10:44:10;;;;;;;2.80;1.90;;;18.40;51.80;;;;;;5078840;27;20438;-89
2022/10/11 10:46:52;;;;;;;14.80;4.90;;;18.50;52.80;;;;;;5094055;27;20446;-87
2022/10/11 10:49:26;;;;;;;14.40;3.70;;;18.70;52.70;;;;;;5115293;27;20470;-85
2022/10/11 10:52:12;;;;;;;9.27;2.60;;;18.60;52.70;;;;;;5097292;27;20836;-86
2022/10/11 10:54:48;;;;;;;3.87;2.13;;;18.40;53.00;;;;;;5095667;27;20462;-85
2022/10/11 10:57:20;;;;;;;10.83;4.37;;;18.50;53.30;;;;;;5104127;27;21237;-86
2022/10/11 11:00:02;;;;;;;5.47;2.50;;;18.70;52.70;;;;;;5106918;27;20517;-86
2022/10/11 11:02:37;;;;;;;2.43;1.73;;;18.70;52.60;;;;;;5095354;27;20450;-86
2022/10/11 11:05:23;;;;;;;5.77;3.07;;;18.60;53.10;;;;;;5101127;27;20495;-85
2022/10/11 11:07:57;;;;;;;7.23;2.80;;;18.70;53.00;;;;;;5082589;27;20517;-88
2022/10/11 11:10:30;;;;;;;7.50;3.23;;;18.90;52.60;;;;;;5093006;27;20931;-85
2022/10/11 11:13:15;;;;;;;7.40;3.30;;;19.00;51.50;;;;;;5112127;27;20595;-85
2022/10/11 11:15:48;;;;;;;5.90;2.50;;;19.10;52.20;;;;;;5085780;27;20461;-88
2022/10/11 11:18:27;;;;;;;5.10;2.93;;;19.40;52.30;;;;;;5115232;27;20545;-85
2022/10/11 11:21:17;;;;;;;8.90;2.33;;;19.50;51.10;;;;;;5093675;27;20455;-88
2022/10/11 11:23:56;;;;;;;2.50;2.10;;;19.60;50.90;;;;;;5093008;27;20443;-86
2022/10/11 11:26:29;;;;;;;6.13;2.30;;;19.60;50.60;;;;;;5110493;27;20442;-87
2022/10/11 11:29:22;;;;;;;4.87;2.60;;;19.50;50.40;;;;;;5100741;27;20468;-85
2022/10/11 11:32:02;;;;;;;7.50;2.63;;;19.70;50.50;;;;;;5091375;27;20522;-86
2022/10/11 11:34:35;;;;;;;7.50;2.03;;;19.80;50.00;;;;;;5110447;27;20475;-84
2022/10/11 11:37:06;;;;;;;6.53;1.70;;;19.80;49.50;;;;;;5108642;27;20481;-86
2022/10/11 11:39:42;;;;;;;7.63;2.07;;;20.10;49.60;;;;;;5094511;27;20463;-83
2022/10/11 11:42:15;;;;;;;3.40;1.93;;;20.20;48.80;;;;;;5115892;27;20442;-84
2022/10/11 11:44:45;;;;;;;6.07;2.10;;;20.20;49.60;;;;;;5075922;27;21276;-85
2022/10/11 11:47:19;;;;;;;6.17;2.37;;;19.80;48.30;;;;;;5104434;27;20451;-85
2022/10/11 11:49:49;;;;;;;5.63;2.30;;;19.60;49.30;;;;;;5087315;27;20550;-82
2022/10/11 11:52:25;;;;;;;6.73;2.73;;;19.70;49.40;;;;;;5103435;27;20529;-83
2022/10/11 11:54:58;;;;;;;5.27;1.57;;;19.80;49.60;;;;;;5081366;27;20750;-83
2022/10/11 11:57:34;;;;;;;4.20;1.50;;;19.90;49.30;;;;;;5078378;27;20449;-85
2022/10/11 12:00:05;;;;;;;9.30;1.90;;;20.10;49.40;;;;;;5085206;27;20626;-86
2022/10/11 12:02:50;;;;;;;6.97;1.80;;;20.70;50.10;;;;;;5092739;27;20441;-84
2022/10/11 12:05:20;;;;;;;7.00;1.90;;;21.20;48.00;;;;;;5097194;27;20443;-83
2022/10/11 12:07:55;;;;;;;4.17;2.20;;;21.10;47.40;;;;;;5094936;27;20503;-83
2022/10/11 12:10:35;;;;;;;7.83;2.23;;;21.20;47.90;;;;;;5093595;27;20447;-87
2022/10/11 12:13:21;;;;;;;7.73;2.60;;;21.30;47.50;;;;;;5101343;27;20478;-85
2022/10/11 12:16:11;;;;;;;9.63;2.87;;;20.90;47.60;;;;;;5114553;27;20526;-82
2022/10/11 12:18:49;;;;;;;6.90;3.80;;;21.40;48.40;;;;;;5112649;27;20464;-84
2022/10/11 12:21:29;;;;;;;12.53;2.87;;;21.70;47.50;;;;;;5086046;27;20465;-83
2022/10/11 12:23:58;;;;;;;3.00;1.80;;;21.90;46.00;;;;;;5111006;27;20532;-85
2022/10/11 12:26:39;;;;;;;3.90;2.17;;;21.80;46.80;;;;;;5101652;27;20955;-87
2022/10/11 12:29:44;;;;;;;5.33;2.30;;;21.80;46.70;;;;;;5096339;27;20469;-83
2022/10/11 12:32:52;;;;;;;6.17;2.47;;;21.90;46.40;;;;;;5092699;27;20443;-84
2022/10/11 12:35:55;;;;;;;8.93;3.03;;;22.30;46.50;;;;;;5091781;27;20465;-83
2022/10/11 12:38:27;;;;;;;5.87;2.30;;;22.30;45.00;;;;;;5108151;27;20466;-82
2022/10/11 12:40:56;;;;;;;10.37;2.80;;;22.00;45.90;;;;;;5059988;27;20450;-84
2022/10/11 12:43:32;;;;;;;5.63;2.00;;;22.30;46.00;;;;;;5081492;27;20476;-85
2022/10/11 12:46:32;;;;;;;4.67;2.23;;;22.40;46.30;;;;;;5062422;27;20450;-83
2022/10/11 12:49:09;;;;;;;6.83;2.27;;;22.70;45.80;;;;;;5115038;27;20470;-83
2022/10/11 12:51:42;;;;;;;3.43;1.70;;;22.90;45.00;;;;;;5099090;28;21236;-85
2022/10/11 12:54:36;;;;;;;6.70;2.03;;;22.70;45.00;;;;;;5113915;27;20565;-83
2022/10/11 12:57:27;;;;;;;4.97;1.93;;;22.70;44.90;;;;;;5099401;28;20454;-83
2022/10/11 12:59:54;;;;;;;3.50;2.10;;;22.50;44.70;;;;;;5092609;28;20448;-85
2022/10/11 13:02:28;;;;;;;6.50;2.10;;;22.00;46.40;;;;;;5093936;27;20442;-83
2022/10/11 13:05:07;;;;;;;9.53;2.27;;;22.00;46.50;;;;;;5110375;27;20423;-83